NCAR-RAP Real-Time Weather Data

Output produced by METARs form (10 April 2020  07:20 UTC)
found at http://weather.rap.ucar.edu/surface/
 
KLBB 100653Z 08013KT 10SM FEW120 09/02 A3011 RMK AO2 SLP169 T00940017
KLBB 100553Z 09011KT 10SM CLR 09/03 A3010 RMK AO2 SLP166 T00940033 10183 20094 402280094 53018
KLBB 100453Z 06010KT 10SM FEW250 10/06 A3008 RMK AO2 SLP159 T01000056
KLBB 100353Z 12009KT 10SM FEW250 11/06 A3004 RMK AO2 SLP145 T01060061
KLBB 100253Z 10011KT 10SM FEW120 BKN250 13/07 A3004 RMK AO2 SLP144 T01330067 53019
KLBB 100153Z 09011KT 10SM FEW120 BKN250 15/07 A3001 RMK AO2 SLP133 T01500067
KLBB 100053Z 08011KT 10SM FEW120 OVC250 17/07 A2999 RMK AO2 SLP128 T01670072
KLBB 092353Z 08013KT 10SM SCT110 BKN250 18/08 A2998 RMK AO2 SLP121 60000 T01830078 10228 20178 53003
KLBB 092253Z 11013KT 10SM BKN110 BKN250 19/08 A2995 RMK AO2 SLP109 T01940083
KLBB 092153Z 15009KT 10SM FEW055 BKN100 OVC250 22/07 A2996 RMK AO2 SLP106 T02220072
KLBB 092053Z 21016KT 10SM FEW055 BKN100 OVC250 22/06 A2997 RMK AO2 SLP110 60000 T02220061 58026
KLBB 091953Z 19013KT 10SM FEW055 BKN070 OVC090 20/07 A3000 RMK AO2 RAB18E50 SLP123 VCSH ALQDS P0000 T02000072
KLBB 091853Z 14007KT 10SM BKN100 OVC250 18/07 A3005 RMK AO2 SLP141 T01830067
KLBB 091753Z 13010KT 10SM SCT110 OVC250 18/06 A3006 RMK AO2 SLP143 T01830061 10183 20122 50010
KLBB 091653Z 11013KT 10SM BKN120 OVC250 18/06 A3006 RMK AO2 SLP141 T01780061
KLBB 091553Z 08013KT 10SM SCT120 BKN150 OVC250 17/06 A3003 RMK AO2 SLP131 T01720056
KLBB 091453Z 09012KT 10SM BKN190 OVC250 17/06 A3002 RMK AO2 SLP132 T01670056 51012
KLBB 091353Z 10007KT 10SM BKN200 BKN250 15/06 A3001 RMK AO2 SLP126 T01500056
KLBB 091253Z 10009KT 10SM OVC230 13/06 A3000 RMK AO2 SLP118 T01330056
KLBB 091153Z 11009KT 10SM BKN170 OVC250 13/06 A2998 RMK AO2 SLP110 T01280061 10183 20128 55000
KLBB 091053Z 10008KT 10SM OVC250 14/06 A2998 RMK AO2 SLP106 OVC LYR THN T01390056
KLBB 090953Z 08008KT 10SM OVC250 14/05 A2997 RMK AO2 SLP105 OVC LYR THN T01390050
KLBB 090853Z 02004KT 10SM BKN250 OVC280 16/01 A2999 RMK AO2 SLP106 OVC LYR THN T01610006 56009